Latest Weather Observations for Evans Head

IDN60801

Issued at 9:02 pm EDT Sunday 26 February 2017 (issued every 30 minutes, with the page automatically refreshed every 10 minutes)

About weather observations | Map of weather stations | Latest weather observations for NSW | Other Formats
Station Details ID: 058212 Name: EVANS HEAD RAAF BOMBING RANGE AWS Lat: -29.18 Lon: 153.40 Height: 62.5 m
Data from the previous 72 hours. | See also: Recent months at Evans Head
Date/Time
EDT
Temp
°C
App
Temp
°C
Dew
Point
°C
Rel
Hum
%
Delta-T
°C
Wind Press
QNH
hPa
Press
MSL
hPa
Rain since
9am
mm
Dir  Spd
km/h
Gust
km/h
Spd
kts
Gust
kts
26/09:00pm 23.3 21.1 19.5 79 2.4 SSE 30 41 16 22 1018.1 1017.8 0.0
26/08:30pm 23.0 20.9 19.0 78 2.5 SSE 28 41 15 22 1018.1 1017.8 0.0
26/08:00pm 22.8 20.6 18.8 78 2.5 S 28 39 15 21 1017.9 1017.6 0.0
26/07:30pm 23.3 20.8 18.8 76 2.9 SSE 30 43 16 23 1017.7 1017.4 0.0
26/07:00pm 23.1 20.1 17.8 72 3.3 SSE 30 46 16 25 1017.5 1017.2 0.0
26/06:54pm 23.0 20.2 18.1 74 3.1 SSE 30 48 16 26 1017.4 1017.1 0.0
26/06:30pm 23.5 20.9 18.6 74 3.1 SSE 30 41 16 22 1017.2 1016.9 0.0
26/06:08pm 24.0 20.8 18.2 70 3.7 SSE 32 56 17 30 1017.1 1016.8 0.0
26/06:00pm 24.5 21.3 18.7 70 3.7 SSE 33 48 18 26 1017.2 1016.9 0.0
26/05:30pm 24.7 22.3 19.1 71 3.6 SSE 30 41 16 22 1017.0 1016.7 0.0
26/05:00pm 25.8 22.9 19.2 67 4.2 SSE 33 50 18 27 1016.8 1016.5 0.0
26/04:30pm 25.4 22.7 19.3 69 3.9 SSE 32 44 17 24 1016.5 1016.2 0.0
26/04:21pm 25.9 23.3 19.8 69 4.0 SSE 33 52 18 28 1016.5 1016.2 0.0
26/04:00pm 26.5 24.3 20.8 71 3.8 SSE 33 46 18 25 1016.4 1016.1 0.0
26/03:30pm 25.3 21.7 18.5 66 4.3 SSE 35 48 19 26 1016.7 1016.4 0.0
26/03:20pm 25.6 22.5 18.5 65 4.5 SSE 32 54 17 29 1016.6 1016.3 0.0
26/03:00pm 27.2 25.4 18.8 60 5.4 SSE 26 33 14 18 1016.8 1016.5 0.0
26/02:30pm 27.1 26.6 18.7 60 5.4 SSE 19 30 10 16 1017.0 1016.7 0.0
26/02:00pm 27.2 25.8 18.8 60 5.4 SSE 24 32 13 17 1017.2 1016.9 0.0
26/01:30pm 26.8 26.0 18.4 60 5.4 SSE 20 26 11 14 1017.6 1017.3 0.0
26/01:00pm 26.7 25.1 18.3 60 5.3 SSE 24 33 13 18 1017.8 1017.5 0.0
26/12:30pm 26.0 23.7 17.6 60 5.3 SSE 26 35 14 19 1018.0 1017.7 0.0
26/12:00pm 26.6 24.3 18.5 61 5.2 SSE 28 37 15 20 1017.9 1017.6 0.0
26/11:30am 26.7 25.1 19.1 63 4.9 SSE 26 37 14 20 1018.0 1017.7 0.0
26/11:00am 26.9 25.7 19.3 63 4.9 SSE 24 32 13 17 1018.0 1017.7 0.0
26/10:30am 28.2 28.2 21.0 65 4.8 SSE 22 32 12 17 1017.8 1017.5 0.0
26/10:00am 27.4 27.4 21.7 71 3.8 SE 24 32 13 17 1017.7 1017.4 0.0
26/09:30am 26.0 26.5 22.7 82 2.2 SE 24 33 13 18 1017.6 1017.3 0.0
26/09:00am 22.6 24.1 20.5 88 1.4 S 13 20 7 11 1017.3 1017.0 0.0
26/08:30am 21.6 22.6 19.5 88 1.3 SSW 13 19 7 10 1017.0 1016.7 0.0
26/08:00am 20.9 21.5 18.7 87 1.4 SW 13 24 7 13 1016.8 1016.5 0.0
26/07:30am 20.3 21.0 17.9 86 1.5 SW 11 19 6 10 1016.2 1015.9 0.0
26/07:00am 20.3 19.7 17.5 84 1.7 SSW 17 26 9 14 1015.9 1015.6 0.0
26/06:30am 20.0 19.8 16.6 81 2.1 SW 13 17 7 9 1015.7 1015.4 0.0
26/06:00am 20.3 20.0 16.5 79 2.3 SSW 13 17 7 9 1015.3 1015.0 0.0
26/05:30am 20.4 20.5 16.4 78 2.4 SW 11 15 6 8 1015.1 1014.8 0.0
26/05:00am 20.6 20.2 16.2 76 2.6 SW 13 17 7 9 1015.0 1014.7 0.0
26/04:30am 20.7 20.5 15.7 73 3.0 WSW 11 15 6 8 1015.1 1014.8 0.0
26/04:00am 22.4 21.8 16.7 70 3.5 SSE 15 22 8 12 1015.1 1014.8 0.0
26/03:30am 22.9 21.7 17.1 70 3.6 SE 19 26 10 14 1015.0 1014.7 0.0
26/03:00am 22.9 21.7 17.1 70 3.6 SE 19 28 10 15 1015.2 1014.9 0.0
26/02:30am 23.0 21.8 17.5 71 3.4 SE 20 30 11 16 1015.4 1015.1 0.0
26/02:00am 23.0 21.8 17.5 71 3.4 SE 20 28 11 15 1015.8 1015.5 0.0
26/01:30am 22.9 21.7 17.4 71 3.4 SE 20 28 11 15 1016.2 1015.9 0.0
26/01:00am 23.0 21.8 17.5 71 3.4 SE 20 28 11 15 1016.6 1016.3 0.0
26/12:30am 23.1 21.9 17.6 71 3.4 SE 20 28 11 15 1017.2 1016.9 0.0
26/12:00am 23.2 22.1 17.7 71 3.4 SSE 20 30 11 16 1017.2 1016.9 0.0
 
Date/Time
EDT
Temp
°C
App
Temp
°C
Dew
Point
°C
Rel
Hum
%
Delta-T
°C
Wind Press
QNH
hPa
Press
MSL
hPa
Rain since
9am
mm
Dir  Spd
km/h
Gust
km/h
Spd
kts
Gust
kts
25/11:30pm 23.2 22.3 17.7 71 3.4 SSE 19 24 10 13 1017.4 1017.1 0.0
25/11:00pm 23.0 22.2 17.2 70 3.6 SSE 17 22 9 12 1017.5 1017.2 0.0
25/10:30pm 23.2 22.1 17.7 71 3.4 SSE 20 28 11 15 1017.3 1017.0 0.0
25/10:00pm 23.4 22.2 17.6 70 3.6 SE 20 28 11 15 1017.5 1017.2 0.0
25/09:30pm 23.5 22.0 17.7 70 3.6 SSE 22 32 12 17 1017.2 1016.9 0.0
25/09:00pm 23.6 22.1 17.6 69 3.7 SE 22 33 12 18 1016.7 1016.4 0.0
25/08:30pm 23.6 21.2 17.3 67 3.9 SE 26 37 14 20 1016.5 1016.2 0.0
25/08:00pm 23.7 21.2 17.2 67 4.0 SE 26 35 14 19 1016.4 1016.1 0.0
25/07:30pm 23.9 21.1 17.2 66 4.2 SSE 28 39 15 21 1016.4 1016.1 0.0
25/07:00pm 24.0 20.8 17.3 66 4.2 SSE 30 44 16 24 1015.8 1015.5 0.0
25/06:30pm 24.2 21.3 17.0 64 4.5 SE 28 39 15 21 1015.4 1015.1 0.0
25/06:00pm 25.0 22.3 17.5 63 4.7 SE 28 41 15 22 1015.4 1015.1 0.0
25/05:30pm 25.8 23.2 17.7 61 5.1 SE 28 43 15 23 1015.3 1015.0 0.0
25/05:00pm 26.0 22.9 17.4 59 5.4 SE 30 39 16 21 1015.3 1015.0 0.0
25/04:30pm 26.9 24.9 18.2 59 5.5 SSE 26 37 14 20 1015.3 1015.0 0.0
25/04:00pm 27.8 26.0 18.8 58 5.8 SE 26 39 14 21 1015.5 1015.2 0.0
25/03:30pm 28.1 26.7 19.6 60 5.5 SE 26 41 14 22 1015.5 1015.2 0.0
25/03:00pm 28.2 26.7 20.2 62 5.3 SE 28 41 15 22 1015.8 1015.5 0.0
25/02:30pm 29.0 28.8 22.0 66 4.7 SSE 26 39 14 21 1016.2 1015.9 0.0
25/02:00pm 28.4 28.4 22.4 70 4.1 SSE 26 39 14 21 1016.4 1016.1 0.0
25/01:30pm 28.5 28.3 22.7 71 4.0 SSE 28 39 15 21 1016.7 1016.4 0.0
25/01:00pm 26.4 25.4 20.5 70 3.9 SSE 26 41 14 22 1016.9 1016.6 0.0
25/12:30pm 27.8 26.7 21.8 70 4.0 SSE 30 43 16 23 1017.0 1016.7 0.0
25/12:00pm 28.2 27.4 21.7 68 4.4 SSE 28 39 15 21 1017.2 1016.9 0.0
25/11:30am 27.6 26.6 21.9 71 3.8 SSE 30 39 16 21 1017.5 1017.2 0.0
25/11:00am 26.7 26.1 21.2 72 3.6 SSE 26 35 14 19 1017.9 1017.6 0.0
25/10:30am 27.2 28.0 22.4 75 3.2 S 22 33 12 18 1018.0 1017.7 0.0
25/10:00am 26.5 27.9 22.8 80 2.5 S 20 33 11 18 1017.9 1017.6 0.0
25/09:30am 24.5 25.5 21.0 81 2.3 S 17 30 9 16 1017.9 1017.6 0.0
25/09:00am 24.6 26.0 21.9 85 1.8 S 17 28 9 15 1017.7 1017.4 0.0
25/08:30am 22.2 23.2 20.3 89 1.2 SSW 15 22 8 12 1017.6 1017.3 0.0
25/08:00am 21.5 22.0 20.0 91 1.0 SW 17 24 9 13 1017.4 1017.1 0.0
25/07:30am 20.4 20.5 19.2 93 0.8 SW 17 22 9 12 1017.2 1016.9 0.0
25/07:00am 19.6 19.4 18.6 94 0.6 SW 17 22 9 12 1016.9 1016.6 0.0
25/06:30am 19.2 19.2 18.0 93 0.7 WSW 15 20 8 11 1016.7 1016.4 0.0
25/06:00am 19.2 19.1 17.9 92 0.8 SW 15 19 8 10 1016.6 1016.3 0.0
25/05:30am 19.4 19.3 17.9 91 0.9 SW 15 20 8 11 1016.5 1016.2 0.0
25/05:00am 19.2 19.0 17.5 90 1.0 SW 15 19 8 10 1016.4 1016.1 0.0
25/04:30am 19.4 19.2 17.5 89 1.2 SW 15 19 8 10 1016.2 1015.9 0.0
25/04:00am 19.4 19.1 17.4 88 1.2 SW 15 19 8 10 1016.3 1016.0 0.0
25/03:30am 20.0 20.6 17.6 86 1.5 SSW 11 15 6 8 1016.3 1016.0 0.0
25/03:00am 20.0 20.5 17.4 85 1.6 SW 11 15 6 8 1016.4 1016.1 0.0
25/02:30am 20.0 20.4 17.2 84 1.7 SW 11 15 6 8 1016.6 1016.3 0.0
25/02:00am 19.8 19.6 16.6 82 1.9 SW 13 17 7 9 1016.8 1016.5 0.0
25/01:30am 20.2 20.0 16.6 80 2.2 SW 13 13 7 7 1016.9 1016.6 0.0
25/01:00am 20.6 20.7 16.4 77 2.5 SW 11 13 6 7 1017.2 1016.9 0.0
25/12:30am 21.4 22.4 16.8 75 2.8 S 7 11 4 6 1017.5 1017.2 0.0
25/12:00am 22.0 22.0 17.2 74 3.0 SE 13 17 7 9 1017.7 1017.4 0.0
 
Date/Time
EDT
Temp
°C
App
Temp
°C
Dew
Point
°C
Rel
Hum
%
Delta-T
°C
Wind Press
QNH
hPa
Press
MSL
hPa
Rain since
9am
mm
Dir  Spd
km/h
Gust
km/h
Spd
kts
Gust
kts
24/11:30pm 22.5 23.1 17.6 74 3.0 SE 11 17 6 9 1017.9 1017.6 0.0
24/11:00pm 22.5 22.7 17.6 74 3.0 ESE 13 17 7 9 1017.9 1017.6 0.0
24/10:30pm 22.2 22.5 16.9 72 3.2 ESE 11 15 6 8 1018.0 1017.7 0.0
24/10:00pm 22.3 22.2 17.0 72 3.3 ESE 13 17 7 9 1018.1 1017.8 0.0
24/09:30pm 22.6 22.6 17.1 71 3.4 ESE 13 17 7 9 1018.0 1017.7 0.0
24/09:00pm 22.8 22.5 17.3 71 3.4 ESE 15 19 8 10 1017.8 1017.5 0.0
24/08:30pm 23.0 22.6 17.2 70 3.6 ESE 15 20 8 11 1017.7 1017.4 0.0
24/08:00pm 22.8 22.3 16.8 69 3.7 ESE 15 19 8 10 1017.5 1017.2 0.0
24/07:30pm 23.0 22.8 16.8 68 3.8 ESE 13 20 7 11 1017.5 1017.2 0.0
24/07:00pm 23.7 22.9 17.0 66 4.1 ESE 17 20 9 11 1017.3 1017.0 0.0
24/06:30pm 24.5 24.0 17.7 66 4.3 ESE 17 22 9 12 1017.1 1016.8 0.0
24/06:00pm 25.1 24.8 18.3 66 4.3 ESE 17 24 9 13 1017.0 1016.7 0.0
24/05:30pm 26.0 26.2 19.4 67 4.3 ESE 17 24 9 13 1017.0 1016.7 0.0
24/05:00pm 26.3 25.5 17.9 60 5.3 ESE 19 24 10 13 1017.0 1016.7 0.0
24/04:30pm 26.9 26.3 18.5 60 5.4 ESE 19 28 10 15 1017.0 1016.7 0.0
24/04:00pm 27.4 26.8 18.4 58 5.7 SE 19 28 10 15 1017.0 1016.7 0.0
24/03:30pm 27.5 26.5 17.9 55 6.1 ESE 20 26 11 14 1017.3 1017.0 0.0
24/03:00pm 27.6 26.8 18.0 55 6.1 ESE 19 24 10 13 1017.6 1017.3 0.0
24/02:30pm 27.8 27.4 18.8 58 5.8 ESE 19 26 10 14 1018.0 1017.7 0.0
24/02:00pm 28.3 28.7 19.8 60 5.6 SE 17 24 9 13 1018.3 1018.0 0.0
24/01:30pm 27.9 27.6 19.1 58 5.7 SE 19 24 10 13 1018.8 1018.5 0.0
24/01:00pm 28.0 28.0 19.0 58 5.8 SSE 17 24 9 13 1019.1 1018.8 0.0
24/12:30pm 28.7 28.6 19.6 58 5.9 SE 19 26 10 14 1019.4 1019.1 0.0
24/12:00pm 27.7 28.1 19.0 59 5.6 SSE 15 20 8 11 1019.5 1019.2 0.0
24/11:30am 27.6 28.2 19.4 61 5.3 SE 15 20 8 11 1019.8 1019.5 0.0
24/11:00am 27.3 28.4 19.6 62 5.0 SSE 13 22 7 12 1020.0 1019.7 0.0
24/10:30am 27.0 28.2 20.6 68 4.2 SE 15 20 8 11 1020.0 1019.7 0.0
24/10:00am 26.8 27.6 19.9 66 4.5 SE 15 20 8 11 1020.0 1019.7 0.0
24/09:30am 26.4 28.1 20.9 72 3.6 SSE 13 17 7 9 1019.9 1019.6 0.0
24/09:00am 24.7 27.2 21.0 80 2.4 SW 9 13 5 7 1019.6 1019.3 0.0
24/08:30am 22.8 25.3 20.3 86 1.6 SW 7 11 4 6 1019.5 1019.2 0.0
24/08:00am 21.5 23.3 19.6 89 1.2 WSW 9 13 5 7 1019.3 1019.0 0.0
24/07:30am 20.0 20.9 18.5 91 0.9 SW 11 13 6 7 1019.1 1018.8 0.0
24/07:00am 19.8 20.7 18.3 91 0.9 WSW 11 13 6 7 1018.8 1018.5 0.0
24/06:30am 19.6 20.0 18.1 91 0.9 WSW 13 15 7 8 1018.4 1018.1 0.0
24/06:00am 19.5 19.8 17.8 90 1.0 WSW 13 15 7 8 1018.1 1017.8 0.0
24/05:30am 19.8 20.1 17.9 89 1.2 SW 13 17 7 9 1017.9 1017.6 0.0
24/05:00am 19.9 20.6 18.0 89 1.2 WSW 11 13 6 7 1017.6 1017.3 0.0
24/04:30am 19.8 20.1 17.8 88 1.2 SW 13 13 7 7 1017.6 1017.3 0.0
24/04:00am 19.8 19.5 17.4 86 1.5 SW 15 17 8 9 1017.8 1017.5 0.0
24/03:30am 19.9 19.9 17.3 85 1.6 SW 13 15 7 8 1018.0 1017.7 0.0
24/03:00am 20.2 20.3 17.4 84 1.7 WSW 13 15 7 8 1018.1 1017.8 0.0
24/02:30am 20.4 21.5 17.2 82 2.0 SW 7 11 4 6 1018.4 1018.1 0.0
24/02:00am 20.8 22.1 17.2 80 2.2 S 6 7 3 4 1018.6 1018.3 0.0
24/01:30am 20.8 21.5 17.0 79 2.3 SW 9 11 5 6 1019.0 1018.7 0.0
24/01:00am 21.7 23.9 17.5 77 2.6 ESE 2 7 1 4 1019.3 1019.0 0.0
24/12:30am 22.2 22.9 18.0 77 2.6 ESE 11 15 6 8 1019.4 1019.1 0.0
24/12:00am 22.2 23.3 18.0 77 2.6 ESE 9 15 5 8 1019.6 1019.3 0.0
 
Date/Time
EDT
Temp
°C
App
Temp
°C
Dew
Point
°C
Rel
Hum
%
Delta-T
°C
Wind Press
QNH
hPa
Press
MSL
hPa
Rain since
9am
mm
Dir  Spd
km/h
Gust
km/h
Spd
kts
Gust
kts
23/11:30pm 21.9 22.3 17.3 75 2.8 SE 11 13 6 7 1019.7 1019.4 0.0
23/11:00pm 22.3 22.8 17.4 74 3.0 SE 11 15 6 8 1019.9 1019.6 0.0
23/10:30pm 22.5 22.5 17.2 72 3.3 ESE 13 17 7 9 1020.0 1019.7 0.0
23/10:00pm 22.9 22.6 17.4 71 3.4 ESE 15 20 8 11 1020.0 1019.7 0.0
23/09:30pm 23.1 22.4 17.3 70 3.6 ESE 17 24 9 13 1020.0 1019.7 0.0

Other Formats:

Comma delimited format used in spreadsheet applications
http://www.bom.gov.au/fwo/IDN60801/IDN60801.94598.axf

JavaScript Object Notation format (JSON) in row-major order
http://www.bom.gov.au/fwo/IDN60801/IDN60801.94598.json